Time;durP1;ratioP1;P1;durP2;ratioP2;P2;SDS_P1;SDS_P2;PMS_P1;PMS_P2;Temp;Humidity;BMP_temperature;BMP_pressure;BME280_temperature;BME280_humidity;BME280_pressure;Samples;Min_cycle;Max_cycle;Signal;HPM_P1;HPM_P2
2024/04/04 00:00:06;;;;;;;38.80;36.70;;;;;;;;;;5017349;28;20023;-95
2024/04/04 00:02:32;;;;;;;38.25;35.97;;;;;;;;;;5000757;28;20419;-93
2024/04/04 00:05:02;;;;;;;38.95;36.67;;;;;;;;;;5001820;28;20037;-94
2024/04/04 00:07:28;;;;;;;42.40;40.00;;;;;;;;;;5009930;28;20037;-95
2024/04/04 00:09:55;;;;;;;37.15;35.03;;;;;;;;;;4993795;28;20034;-95
2024/04/04 00:12:21;;;;;;;40.67;38.47;;;;;;;;;;4993841;28;20030;-94
2024/04/04 00:14:48;;;;;;;34.65;32.60;;;;;;;;;;4993641;28;20037;-93
2024/04/04 00:17:14;;;;;;;38.67;36.63;;;;;;;;;;4993813;28;20034;-93
2024/04/04 00:19:40;;;;;;;34.83;32.88;;;;;;;;;;4994140;28;20058;-93
2024/04/04 00:22:07;;;;;;;29.08;27.33;;;;;;;;;;5002268;28;20030;-91
2024/04/04 00:24:33;;;;;;;33.78;31.95;;;;;;;;;;5017267;28;20034;-94
2024/04/04 00:26:59;;;;;;;32.65;30.88;;;;;;;;;;5017150;28;20029;-92
2024/04/04 00:29:25;;;;;;;35.72;33.67;;;;;;;;;;5017014;28;20026;-94
2024/04/04 00:31:51;;;;;;;32.63;30.75;;;;;;;;;;5016948;28;20069;-93
2024/04/04 00:34:18;;;;;;;29.60;27.92;;;;;;;;;;5016878;28;20026;-92
2024/04/04 00:36:44;;;;;;;30.25;28.63;;;;;;;;;;5016909;28;20033;-94
2024/04/04 00:39:10;;;;;;;34.33;32.42;;;;;;;;;;5017253;28;20022;-94
2024/04/04 00:41:36;;;;;;;35.25;32.88;;;;;;;;;;5017056;28;20108;-93
2024/04/04 00:44:02;;;;;;;31.20;29.48;;;;;;;;;;5016770;28;20034;-93
2024/04/04 00:46:38;;;;;;;;;;;;;;;;;;;;;
2024/04/04 00:49:06;;;;;;;31.23;29.42;;;;;;;;;;5069402;22;20049;-93
2024/04/04 00:51:32;;;;;;;32.58;30.58;;;;;;;;;;5016867;28;20042;-95
2024/04/04 00:53:58;;;;;;;32.03;30.20;;;;;;;;;;5016611;28;20028;-93
2024/04/04 00:56:24;;;;;;;31.60;29.90;;;;;;;;;;5016651;28;20034;-94
2024/04/04 00:58:50;;;;;;;29.70;28.08;;;;;;;;;;5016739;28;20041;-95
2024/04/04 01:01:16;;;;;;;37.13;35.03;;;;;;;;;;5016597;28;20030;-94
2024/04/04 01:03:42;;;;;;;32.50;30.70;;;;;;;;;;5016888;28;20594;-94
2024/04/04 01:06:09;;;;;;;32.80;30.90;;;;;;;;;;5017903;28;20606;-94
2024/04/04 01:08:35;;;;;;;39.22;37.13;;;;;;;;;;5016715;28;20113;-94
2024/04/04 01:11:01;;;;;;;33.80;31.80;;;;;;;;;;5015962;28;20053;-93
2024/04/04 01:13:27;;;;;;;30.92;29.23;;;;;;;;;;4997138;28;20030;-93
2024/04/04 01:15:53;;;;;;;34.17;32.25;;;;;;;;;;4997046;28;20026;-94
2024/04/04 01:18:19;;;;;;;32.17;30.30;;;;;;;;;;4997059;28;20027;-94
2024/04/04 01:20:46;;;;;;;28.60;27.00;;;;;;;;;;5026864;28;20017;-93
2024/04/04 01:23:12;;;;;;;33.05;31.25;;;;;;;;;;5025335;28;20081;-93
2024/04/04 01:25:38;;;;;;;31.90;30.00;;;;;;;;;;4999491;28;20034;-95
2024/04/04 01:28:04;;;;;;;31.25;29.55;;;;;;;;;;5016811;28;20233;-92
2024/04/04 01:30:31;;;;;;;28.67;27.15;;;;;;;;;;5019063;28;20089;-93
2024/04/04 01:32:57;;;;;;;29.90;28.30;;;;;;;;;;5017303;28;20026;-93
2024/04/04 01:35:23;;;;;;;31.30;29.58;;;;;;;;;;5015868;28;20383;-93
2024/04/04 01:37:49;;;;;;;33.95;32.15;;;;;;;;;;5015781;28;20029;-94
2024/04/04 01:40:15;;;;;;;34.65;32.80;;;;;;;;;;5015997;28;20443;-94
2024/04/04 01:42:42;;;;;;;28.40;26.88;;;;;;;;;;5015658;28;20021;-91
2024/04/04 01:45:08;;;;;;;36.85;34.85;;;;;;;;;;5015696;28;20123;-94
2024/04/04 01:47:34;;;;;;;30.88;29.10;;;;;;;;;;5015631;28;20095;-95
2024/04/04 01:50:00;;;;;;;30.55;28.63;;;;;;;;;;5015741;28;20049;-94
2024/04/04 01:52:26;;;;;;;33.67;31.88;;;;;;;;;;5016008;28;20033;-94
2024/04/04 01:54:52;;;;;;;32.42;30.50;;;;;;;;;;5015646;28;20026;-94
2024/04/04 01:57:18;;;;;;;33.75;31.98;;;;;;;;;;5015490;28;20052;-94
2024/04/04 01:59:45;;;;;;;33.28;31.50;;;;;;;;;;5012719;28;20026;-94
2024/04/04 02:02:11;;;;;;;35.15;33.22;;;;;;;;;;4997540;28;20030;-95
2024/04/04 02:04:38;;;;;;;27.80;26.27;;;;;;;;;;4995966;28;20085;-94
2024/04/04 02:07:05;;;;;;;41.58;39.28;;;;;;;;;;4996384;28;20034;-91
2024/04/04 02:09:31;;;;;;;24.50;23.10;;;;;;;;;;5016784;28;20026;-94
2024/04/04 02:11:57;;;;;;;25.58;24.17;;;;;;;;;;5015243;28;20116;-94
2024/04/04 02:14:24;;;;;;;35.42;33.50;;;;;;;;;;5015534;28;20032;-92
2024/04/04 02:16:50;;;;;;;23.30;21.95;;;;;;;;;;5015388;28;20033;-95
2024/04/04 02:19:16;;;;;;;28.92;27.33;;;;;;;;;;5015100;28;20026;-93
2024/04/04 02:21:42;;;;;;;38.67;36.55;;;;;;;;;;5015292;28;20026;-93
2024/04/04 02:24:08;;;;;;;27.10;25.63;;;;;;;;;;5015153;28;20025;-94
2024/04/04 02:26:35;;;;;;;15.02;14.15;;;;;;;;;;5015160;28;20034;-92
2024/04/04 02:29:01;;;;;;;26.90;25.33;;;;;;;;;;5015062;28;20434;-93
2024/04/04 02:31:27;;;;;;;22.85;21.55;;;;;;;;;;5015140;28;20107;-93
2024/04/04 02:33:53;;;;;;;25.88;24.45;;;;;;;;;;5023505;28;20018;-92
2024/04/04 02:36:19;;;;;;;31.73;30.02;;;;;;;;;;5039268;28;20014;-94
2024/04/04 02:38:46;;;;;;;33.38;31.50;;;;;;;;;;5033538;28;20076;-95
2024/04/04 02:41:12;;;;;;;18.98;17.92;;;;;;;;;;5023409;28;20022;-94
2024/04/04 02:43:38;;;;;;;18.65;17.40;;;;;;;;;;5002969;28;20444;-95
2024/04/04 02:46:05;;;;;;;27.70;26.20;;;;;;;;;;4998821;28;20026;-93
2024/04/04 02:48:31;;;;;;;27.83;26.20;;;;;;;;;;4995284;28;20031;-94
2024/04/04 02:50:59;;;;;;;15.05;14.20;;;;;;;;;;4994777;28;20570;-94
2024/04/04 02:53:25;;;;;;;20.10;18.95;;;;;;;;;;4995001;28;20023;-94
2024/04/04 02:55:56;;;;;;;11.00;10.32;;;;;;;;;;4995612;28;20444;-94
2024/04/04 02:58:23;;;;;;;25.33;23.75;;;;;;;;;;4995267;28;20022;-93
2024/04/04 03:00:49;;;;;;;15.05;14.13;;;;;;;;;;4995337;28;20030;-93
2024/04/04 03:03:17;;;;;;;23.58;22.08;;;;;;;;;;5025520;28;20014;-93
2024/04/04 03:05:43;;;;;;;8.80;8.20;;;;;;;;;;5024305;28;20034;-93
2024/04/04 03:08:10;;;;;;;11.57;10.77;;;;;;;;;;5014356;28;20022;-92
2024/04/04 03:10:36;;;;;;;15.07;14.20;;;;;;;;;;5014264;28;20037;-93
2024/04/04 03:13:03;;;;;;;11.82;10.90;;;;;;;;;;5014277;28;20383;-92
2024/04/04 03:15:29;;;;;;;20.85;19.65;;;;;;;;;;5014468;28;20030;-94
2024/04/04 03:17:56;;;;;;;16.75;15.48;;;;;;;;;;5014697;28;20026;-93
2024/04/04 03:20:22;;;;;;;22.48;21.17;;;;;;;;;;5013935;28;20021;-94
2024/04/04 03:22:48;;;;;;;17.35;16.25;;;;;;;;;;5014446;28;20133;-94
2024/04/04 03:25:15;;;;;;;11.02;10.40;;;;;;;;;;5014369;28;20033;-94
2024/04/04 03:27:41;;;;;;;18.50;17.38;;;;;;;;;;5013905;28;20046;-93
2024/04/04 03:30:07;;;;;;;18.42;17.27;;;;;;;;;;5013910;28;20030;-94
2024/04/04 03:32:34;;;;;;;19.92;18.77;;;;;;;;;;5013621;28;20030;-94
2024/04/04 03:35:00;;;;;;;15.48;14.50;;;;;;;;;;5013830;28;20026;-95
2024/04/04 03:37:26;;;;;;;17.17;16.10;;;;;;;;;;5013975;28;20088;-95
2024/04/04 03:39:53;;;;;;;13.77;12.95;;;;;;;;;;5013749;28;20038;-94
2024/04/04 03:42:20;;;;;;;37.95;35.90;;;;;;;;;;5014003;28;20041;-93
2024/04/04 03:47:51;;;;;;;16.52;15.50;;;;;;;;;;5015130;28;20033;-93
2024/04/04 03:50:19;;;;;;;34.88;32.95;;;;;;;;;;5013468;28;20045;-95
2024/04/04 03:52:46;;;;;;;30.02;28.27;;;;;;;;;;5010738;28;20140;-93
2024/04/04 03:55:12;;;;;;;16.05;15.05;;;;;;;;;;4994302;28;20062;-92
2024/04/04 03:57:38;;;;;;;21.15;19.95;;;;;;;;;;5009222;28;20033;-93
2024/04/04 04:00:08;;;;;;;10.40;9.80;;;;;;;;;;5013768;28;20022;-92
2024/04/04 04:02:35;;;;;;;15.52;14.60;;;;;;;;;;5014429;28;20034;-94
2024/04/04 04:05:02;;;;;;;16.67;15.60;;;;;;;;;;5013920;28;20022;-91
2024/04/04 04:07:28;;;;;;;19.48;18.33;;;;;;;;;;5013751;28;20034;-94
2024/04/04 04:09:54;;;;;;;28.85;27.10;;;;;;;;;;5016730;28;20034;-93
2024/04/04 04:12:20;;;;;;;18.50;17.38;;;;;;;;;;5023154;28;20414;-94
2024/04/04 04:14:46;;;;;;;26.30;24.58;;;;;;;;;;5011809;28;20031;-93
2024/04/04 04:17:12;;;;;;;28.17;26.60;;;;;;;;;;4994218;28;20026;-94
2024/04/04 04:19:38;;;;;;;13.95;13.13;;;;;;;;;;4997187;28;20026;-92
2024/04/04 04:22:05;;;;;;;19.27;18.13;;;;;;;;;;4997369;28;20038;-94
2024/04/04 04:24:31;;;;;;;8.48;7.82;;;;;;;;;;4994193;28;20030;-93
2024/04/04 04:26:58;;;;;;;30.30;28.60;;;;;;;;;;4993940;28;20023;-94
2024/04/04 04:29:24;;;;;;;17.63;16.58;;;;;;;;;;4993756;28;20026;-92
2024/04/04 04:31:54;;;;;;;23.67;22.25;;;;;;;;;;4993858;28;20046;-93
2024/04/04 04:34:20;;;;;;;20.30;19.00;;;;;;;;;;4996963;28;20034;-93
2024/04/04 04:36:59;;;;;;;29.20;27.60;;;;;;;;;;5013235;28;20026;-95
2024/04/04 04:39:26;;;;;;;16.30;15.27;;;;;;;;;;5013026;28;20068;-94
2024/04/04 04:41:52;;;;;;;14.98;14.05;;;;;;;;;;5014622;28;20117;-95
2024/04/04 04:44:19;;;;;;;11.13;10.27;;;;;;;;;;5026004;28;20011;-92
2024/04/04 04:46:45;;;;;;;13.93;13.07;;;;;;;;;;5024807;28;20360;-92
2024/04/04 04:49:11;;;;;;;17.90;16.80;;;;;;;;;;5016225;28;20483;-92
2024/04/04 04:51:40;;;;;;;12.77;11.98;;;;;;;;;;5013209;28;20063;-94
2024/04/04 04:54:06;;;;;;;22.75;21.42;;;;;;;;;;4997356;28;20018;-95
2024/04/04 04:56:33;;;;;;;20.02;18.77;;;;;;;;;;5001098;28;20026;-94
2024/04/04 04:58:59;;;;;;;26.23;24.60;;;;;;;;;;5016347;28;20026;-94
2024/04/04 05:01:28;;;;;;;10.85;10.02;;;;;;;;;;5015501;28;20387;-95
2024/04/04 05:03:54;;;;;;;18.58;17.33;;;;;;;;;;5015875;28;20025;-94
2024/04/04 05:06:20;;;;;;;38.53;36.47;;;;;;;;;;5013478;28;20026;-94
2024/04/04 05:08:46;;;;;;;9.50;8.82;;;;;;;;;;5017102;28;20069;-94
2024/04/04 05:11:12;;;;;;;19.50;18.30;;;;;;;;;;5017741;28;20038;-93
2024/04/04 05:13:39;;;;;;;15.90;14.88;;;;;;;;;;5022718;28;20086;-91
2024/04/04 05:16:05;;;;;;;56.33;53.30;;;;;;;;;;5030827;28;20491;-95
2024/04/04 05:18:31;;;;;;;26.52;25.00;;;;;;;;;;5000639;28;20054;-95
2024/04/04 05:21:07;;;;;;;55.58;52.47;;;;;;;;;;4999096;28;20057;-95
2024/04/04 05:23:33;;;;;;;24.27;22.92;;;;;;;;;;4997606;28;20022;-93
2024/04/04 05:26:00;;;;;;;54.95;51.90;;;;;;;;;;4998084;28;20034;-94
2024/04/04 05:28:30;;;;;;;42.10;39.50;;;;;;;;;;5001391;28;20031;-94
2024/04/04 05:31:00;;;;;;;22.63;21.13;;;;;;;;;;5019050;28;20034;-94
2024/04/04 05:33:26;;;;;;;52.35;49.55;;;;;;;;;;5018468;28;20040;-94
2024/04/04 05:35:55;;;;;;;60.15;56.85;;;;;;;;;;5022395;28;20018;-93
2024/04/04 05:38:21;;;;;;;57.03;53.83;;;;;;;;;;5036973;28;20022;-94
2024/04/04 05:40:48;;;;;;;53.95;51.05;;;;;;;;;;5035173;28;20110;-95
2024/04/04 05:43:14;;;;;;;52.10;48.75;;;;;;;;;;5033931;28;20038;-95
2024/04/04 05:45:40;;;;;;;63.20;59.72;;;;;;;;;;5020945;28;20029;-94
2024/04/04 05:48:06;;;;;;;76.13;71.93;;;;;;;;;;5017415;28;20026;-96
2024/04/04 05:50:34;;;;;;;82.43;77.95;;;;;;;;;;5016357;28;20057;-95
2024/04/04 05:53:00;;;;;;;76.28;72.07;;;;;;;;;;5016150;28;20030;-94
2024/04/04 05:55:27;;;;;;;47.55;44.88;;;;;;;;;;5016799;28;20032;-96
2024/04/04 05:57:53;;;;;;;50.22;47.28;;;;;;;;;;5016952;28;20026;-96
2024/04/04 06:00:19;;;;;;;32.78;30.85;;;;;;;;;;5017170;28;20117;-95
2024/04/04 06:02:45;;;;;;;29.38;27.48;;;;;;;;;;5015806;28;20037;-96
2024/04/04 06:05:12;;;;;;;29.63;27.92;;;;;;;;;;5009632;28;20034;-95
2024/04/04 06:07:38;;;;;;;30.13;28.40;;;;;;;;;;5022199;28;20108;-96
2024/04/04 06:13:09;;;;;;;15.10;14.00;;;;;;;;;;5019944;28;20049;-94
2024/04/04 06:15:35;;;;;;;13.63;12.75;;;;;;;;;;5019499;28;20390;-95
2024/04/04 06:18:02;;;;;;;13.40;12.48;;;;;;;;;;5017530;28;20109;-94
2024/04/04 06:20:31;;;;;;;10.43;9.50;;;;;;;;;;5021329;28;20499;-95
2024/04/04 06:22:57;;;;;;;10.65;9.85;;;;;;;;;;5019842;28;20026;-94
2024/04/04 06:25:23;;;;;;;9.63;8.93;;;;;;;;;;5019070;28;20038;-92
2024/04/04 06:27:51;;;;;;;9.30;8.70;;;;;;;;;;5023858;28;20038;-91
2024/04/04 06:47:10;;;;;;;23.75;22.38;;;;;;;;;;5312080;23;20081;-95
2024/04/04 06:49:37;;;;;;;26.90;25.20;;;;;;;;;;4979993;28;20122;-94
2024/04/04 06:52:03;;;;;;;33.38;31.38;;;;;;;;;;4976600;28;20523;-94
2024/04/04 06:54:29;;;;;;;28.10;26.50;;;;;;;;;;4976618;28;20023;-94
2024/04/04 06:56:57;;;;;;;28.10;26.40;;;;;;;;;;4976168;28;20046;-94
2024/04/04 06:59:23;;;;;;;31.35;29.55;;;;;;;;;;4975660;28;20030;-92
2024/04/04 07:01:49;;;;;;;23.98;22.30;;;;;;;;;;4976143;28;20034;-94
2024/04/04 07:04:15;;;;;;;30.35;28.40;;;;;;;;;;4976870;28;20031;-94
2024/04/04 07:06:41;;;;;;;29.15;27.42;;;;;;;;;;4973886;28;20467;-93
2024/04/04 07:09:09;;;;;;;20.35;19.05;;;;;;;;;;4964060;28;20035;-95
2024/04/04 07:11:35;;;;;;;22.35;21.08;;;;;;;;;;4966234;28;20046;-93
2024/04/04 07:14:07;;;;;;;21.40;20.15;;;;;;;;;;4973553;28;20056;-94
2024/04/04 07:16:46;;;;;;;22.77;21.38;;;;;;;;;;4972173;28;20103;-96
2024/04/04 07:19:16;;;;;;;32.90;31.02;;;;;;;;;;4972898;28;20035;-96
2024/04/04 07:22:00;;;;;;;30.58;28.77;;;;;;;;;;4969573;28;20589;-95
2024/04/04 07:24:33;;;;;;;30.23;28.30;;;;;;;;;;4977317;28;20527;-95
2024/04/04 07:27:20;;;;;;;25.38;23.88;;;;;;;;;;4957193;28;20050;-95
2024/04/04 07:29:49;;;;;;;32.50;30.55;;;;;;;;;;4971807;28;20559;-94
2024/04/04 07:32:48;;;;;;;23.77;22.42;;;;;;;;;;4971442;28;20061;-93
2024/04/04 07:35:16;;;;;;;22.58;21.15;;;;;;;;;;4973423;28;20046;-94
2024/04/04 07:37:45;;;;;;;22.40;21.00;;;;;;;;;;4971741;28;20485;-93
2024/04/04 07:40:14;;;;;;;29.60;28.00;;;;;;;;;;4971473;28;20026;-93
2024/04/04 07:42:41;;;;;;;19.52;18.10;;;;;;;;;;4956839;28;20059;-92
2024/04/04 07:45:10;;;;;;;21.77;20.35;;;;;;;;;;4980231;28;20023;-93
2024/04/04 07:47:37;;;;;;;22.52;20.60;;;;;;;;;;4955902;29;20051;-94
2024/04/04 07:50:07;;;;;;;38.92;36.85;;;;;;;;;;4975033;28;20126;-94
2024/04/04 07:52:34;;;;;;;29.90;28.15;;;;;;;;;;4975731;28;20074;-94
2024/04/04 07:55:00;;;;;;;24.75;23.20;;;;;;;;;;4974723;28;20027;-94
2024/04/04 07:57:26;;;;;;;42.55;40.15;;;;;;;;;;4971141;28;20050;-92
2024/04/04 07:59:53;;;;;;;34.40;32.40;;;;;;;;;;4955061;29;20465;-92
2024/04/04 08:02:19;;;;;;;45.80;43.20;;;;;;;;;;4955758;29;20090;-94
2024/04/04 08:04:46;;;;;;;74.53;70.68;;;;;;;;;;4955341;29;20027;-93
2024/04/04 08:07:12;;;;;;;80.57;76.32;;;;;;;;;;4955539;29;20078;-94
2024/04/04 08:09:39;;;;;;;39.92;37.53;;;;;;;;;;4985588;28;20027;-93
2024/04/04 08:15:12;;;;;;;71.32;67.45;;;;;;;;;;4973032;28;20446;-93
2024/04/04 08:17:40;;;;;;;71.20;67.07;;;;;;;;;;4974971;28;20030;-92
2024/04/04 08:20:08;;;;;;;51.22;48.47;;;;;;;;;;4974779;28;20035;-92
2024/04/04 08:22:35;;;;;;;77.88;73.70;;;;;;;;;;4975376;28;20031;-92
2024/04/04 08:25:01;;;;;;;70.22;66.18;;;;;;;;;;4975414;28;20429;-93
2024/04/04 08:27:37;;;;;;;64.10;60.58;;;;;;;;;;4975194;28;20118;-93
2024/04/04 08:30:03;;;;;;;77.75;73.60;;;;;;;;;;4976785;28;20049;-90
2024/04/04 08:32:32;;;;;;;59.28;55.97;;;;;;;;;;4975745;28;20086;-92
2024/04/04 08:35:00;;;;;;;77.25;73.18;;;;;;;;;;4976572;28;20008;-92
2024/04/04 08:37:28;;;;;;;65.07;61.58;;;;;;;;;;4986932;28;20019;-92
2024/04/04 08:39:54;;;;;;;70.45;66.68;;;;;;;;;;4967631;28;20043;-92
2024/04/04 08:42:30;;;;;;;70.00;66.30;;;;;;;;;;4965521;28;20028;-95
2024/04/04 08:45:21;;;;;;;65.30;61.80;;;;;;;;;;4961877;28;20054;-96
2024/04/04 08:51:05;;;;;;;63.80;60.42;;;;;;;;;;5017811;23;20043;-93
2024/04/04 08:56:49;;;;;;;67.13;63.60;;;;;;;;;;4962491;22;20096;-94
2024/04/04 08:59:15;;;;;;;43.80;41.42;;;;;;;;;;4984565;23;20055;-96
2024/04/04 09:01:45;;;;;;;36.60;34.60;;;;;;;;;;5128982;23;20034;-94
2024/04/04 09:04:37;;;;;;;37.47;35.38;;;;;;;;;;4984939;28;20094;-95
2024/04/04 09:07:04;;;;;;;38.03;35.78;;;;;;;;;;4980844;28;20511;-93
2024/04/04 09:09:33;;;;;;;34.83;32.65;;;;;;;;;;4979397;28;20027;-92
2024/04/04 09:12:09;;;;;;;32.38;30.48;;;;;;;;;;4980088;28;20070;-93
2024/04/04 09:14:35;;;;;;;31.80;29.92;;;;;;;;;;4977542;28;20498;-92
2024/04/04 09:17:05;;;;;;;33.05;31.13;;;;;;;;;;4979114;28;20031;-94
2024/04/04 09:19:59;;;;;;;33.70;31.80;;;;;;;;;;4982237;28;20023;-93
2024/04/04 09:22:31;;;;;;;28.05;26.45;;;;;;;;;;4979286;28;20031;-93
2024/04/04 09:24:59;;;;;;;37.05;34.85;;;;;;;;;;4977967;28;20019;-91
2024/04/04 09:27:25;;;;;;;35.58;33.58;;;;;;;;;;4975438;28;20502;-93
2024/04/04 09:29:52;;;;;;;35.97;33.92;;;;;;;;;;4959642;29;20030;-92
2024/04/04 09:32:24;;;;;;;37.58;35.40;;;;;;;;;;4958885;29;20502;-93
2024/04/04 09:34:54;;;;;;;34.60;32.07;;;;;;;;;;4959988;29;20039;-94
2024/04/04 09:37:24;;;;;;;33.00;31.10;;;;;;;;;;4960926;29;20278;-93
2024/04/04 09:39:52;;;;;;;28.35;26.75;;;;;;;;;;4961443;28;20039;-94
2024/04/04 09:42:21;;;;;;;37.03;34.78;;;;;;;;;;4974574;28;20378;-93
2024/04/04 09:44:47;;;;;;;28.65;27.00;;;;;;;;;;4961356;29;20131;-94
2024/04/04 09:47:14;;;;;;;38.28;35.88;;;;;;;;;;5013998;23;20073;-94
2024/04/04 09:49:40;;;;;;;33.03;31.13;;;;;;;;;;4991707;28;20063;-92
2024/04/04 09:52:07;;;;;;;30.55;28.85;;;;;;;;;;5009626;23;20067;-93
2024/04/04 09:54:33;;;;;;;38.00;35.70;;;;;;;;;;4975245;28;20037;-94
2024/04/04 09:57:00;;;;;;;34.55;32.08;;;;;;;;;;4996853;28;20026;-95
2024/04/04 09:59:27;;;;;;;30.23;28.48;;;;;;;;;;5019781;23;20051;-93
2024/04/04 10:07:26;;;;;;;33.05;31.08;;;;;;;;;;5287137;23;20153;-94
2024/04/04 10:13:10;;;;;;;30.70;28.77;;;;;;;;;;5693655;23;20190;-94
2024/04/04 10:15:50;;;;;;;30.48;28.77;;;;;;;;;;5516264;23;20021;-95
2024/04/04 10:23:42;;;;;;;33.63;31.65;;;;;;;;;;5009210;28;20050;-96
2024/04/04 10:26:09;;;;;;;27.42;25.83;;;;;;;;;;4987589;28;20494;-95
2024/04/04 10:28:36;;;;;;;27.55;25.95;;;;;;;;;;4981197;28;20022;-94
2024/04/04 10:31:02;;;;;;;38.97;36.63;;;;;;;;;;4986537;28;20130;-94
2024/04/04 10:33:29;;;;;;;35.83;33.65;;;;;;;;;;4980474;28;20023;-92
2024/04/04 10:36:03;;;;;;;35.60;33.55;;;;;;;;;;4980209;28;20037;-92
2024/04/04 10:38:29;;;;;;;31.55;29.65;;;;;;;;;;4978847;28;20037;-92
2024/04/04 10:40:56;;;;;;;37.70;35.33;;;;;;;;;;4976136;28;20041;-94
2024/04/04 10:43:25;;;;;;;33.45;31.45;;;;;;;;;;4961375;28;20118;-93
2024/04/04 10:46:38;;;;;;;31.83;29.83;;;;;;;;;;5082738;23;20039;-94
2024/04/04 10:49:39;;;;;;;33.55;31.58;;;;;;;;;;4900146;29;20043;-95
2024/04/04 10:52:25;;;;;;;31.55;29.67;;;;;;;;;;4860983;29;20061;-95
2024/04/04 10:54:51;;;;;;;36.53;34.10;;;;;;;;;;4855107;29;20042;-95
2024/04/04 10:57:17;;;;;;;27.17;25.48;;;;;;;;;;4860633;29;20053;-94
2024/04/04 10:59:53;;;;;;;35.20;33.15;;;;;;;;;;4847867;29;20034;-96
2024/04/04 11:02:22;;;;;;;28.00;26.40;;;;;;;;;;4855321;29;20020;-93
2024/04/04 11:04:49;;;;;;;25.60;24.10;;;;;;;;;;4885471;29;20097;-94
2024/04/04 11:10:11;;;;;;;39.15;36.88;;;;;;;;;;5411775;23;20058;-95
2024/04/04 11:12:53;;;;;;;35.80;33.72;;;;;;;;;;4983727;28;20053;-96
2024/04/04 11:15:21;;;;;;;35.25;32.92;;;;;;;;;;4986350;28;20046;-92
2024/04/04 11:17:47;;;;;;;30.88;28.98;;;;;;;;;;4981213;28;20089;-94
2024/04/04 11:20:19;;;;;;;29.30;27.63;;;;;;;;;;4978751;28;20101;-93
2024/04/04 11:22:48;;;;;;;26.63;25.13;;;;;;;;;;4994950;28;20021;-93
2024/04/04 11:25:14;;;;;;;23.73;22.30;;;;;;;;;;5043088;23;20126;-93
2024/04/04 11:27:46;;;;;;;22.10;20.88;;;;;;;;;;4961853;28;20077;-95
2024/04/04 11:32:55;;;;;;;19.38;18.27;;;;;;;;;;5572739;23;20041;-93
2024/04/04 11:35:27;;;;;;;28.23;26.60;;;;;;;;;;5013002;28;20054;-92
2024/04/04 11:37:56;;;;;;;25.27;23.67;;;;;;;;;;5005683;28;20133;-94
2024/04/04 11:40:25;;;;;;;25.13;23.73;;;;;;;;;;4998285;28;20467;-93
2024/04/04 11:42:53;;;;;;;25.20;23.65;;;;;;;;;;4995581;28;20027;-94
2024/04/04 11:45:22;;;;;;;25.63;24.10;;;;;;;;;;4955348;29;20673;-95
2024/04/04 11:47:48;;;;;;;25.63;24.00;;;;;;;;;;4973316;28;20034;-93
2024/04/04 11:50:14;;;;;;;27.13;25.45;;;;;;;;;;4980031;28;20117;-94
2024/04/04 11:58:58;;;;;;;28.10;26.38;;;;;;;;;;5014713;28;20108;-94
2024/04/04 12:01:27;;;;;;;29.40;27.75;;;;;;;;;;5006878;28;20030;-95
2024/04/04 12:03:55;;;;;;;27.25;25.75;;;;;;;;;;5017086;28;20036;-95
2024/04/04 12:06:27;;;;;;;35.00;32.97;;;;;;;;;;5004165;28;20111;-95
2024/04/04 12:12:02;;;;;;;26.98;25.38;;;;;;;;;;5022044;28;20142;-94
2024/04/04 12:14:44;;;;;;;32.03;30.20;;;;;;;;;;5060873;23;20042;-94
2024/04/04 12:17:32;;;;;;;25.58;24.10;;;;;;;;;;4968221;28;20034;-95
2024/04/04 12:19:58;;;;;;;27.33;25.75;;;;;;;;;;4978512;28;20038;-94
2024/04/04 12:22:31;;;;;;;30.88;29.10;;;;;;;;;;4984832;28;20110;-95
2024/04/04 12:27:58;;;;;;;24.95;23.50;;;;;;;;;;4992008;28;20837;-95
2024/04/04 12:30:28;;;;;;;30.67;28.98;;;;;;;;;;4987973;28;20069;-94
2024/04/04 12:32:57;;;;;;;23.83;22.48;;;;;;;;;;4968128;28;20038;-95
2024/04/04 12:35:23;;;;;;;23.85;22.35;;;;;;;;;;4981878;28;20475;-94
2024/04/04 12:37:49;;;;;;;22.55;21.23;;;;;;;;;;4970989;28;20053;-93
2024/04/04 12:40:15;;;;;;;23.38;22.08;;;;;;;;;;4962856;28;20023;-93
2024/04/04 12:42:42;;;;;;;22.88;21.35;;;;;;;;;;4972659;28;20062;-93
2024/04/04 12:45:08;;;;;;;21.92;20.58;;;;;;;;;;4981477;28;20384;-93
2024/04/04 12:47:42;;;;;;;23.63;22.25;;;;;;;;;;4982456;28;20472;-93
2024/04/04 12:50:12;;;;;;;20.95;19.73;;;;;;;;;;4981156;28;20035;-93
2024/04/04 12:52:38;;;;;;;20.85;19.73;;;;;;;;;;4981548;28;20022;-94
2024/04/04 12:55:05;;;;;;;23.85;22.40;;;;;;;;;;4989191;28;20038;-93
2024/04/04 12:57:34;;;;;;;24.23;22.73;;;;;;;;;;4993870;28;20035;-94
2024/04/04 13:00:00;;;;;;;25.73;24.30;;;;;;;;;;4981409;28;20022;-94
2024/04/04 13:02:26;;;;;;;24.13;22.80;;;;;;;;;;4981108;28;20480;-95
2024/04/04 13:04:52;;;;;;;21.90;20.70;;;;;;;;;;4980941;28;20607;-95
2024/04/04 13:07:20;;;;;;;17.88;16.88;;;;;;;;;;4984530;28;20030;-94
2024/04/04 13:09:46;;;;;;;23.33;21.92;;;;;;;;;;4971381;28;20022;-92
2024/04/04 13:12:12;;;;;;;19.80;18.70;;;;;;;;;;4993567;28;20170;-93
2024/04/04 13:14:38;;;;;;;21.65;20.38;;;;;;;;;;4989078;28;20050;-93
2024/04/04 13:17:08;;;;;;;22.50;21.27;;;;;;;;;;4984107;28;20031;-96
2024/04/04 13:19:34;;;;;;;21.40;20.20;;;;;;;;;;4987145;28;20404;-94
2024/04/04 13:22:00;;;;;;;17.90;16.92;;;;;;;;;;4986863;28;20033;-95
2024/04/04 13:24:45;;;;;;;16.88;15.88;;;;;;;;;;4982957;28;20026;-92
2024/04/04 13:27:11;;;;;;;20.98;19.88;;;;;;;;;;4981606;28;20026;-94
2024/04/04 13:29:37;;;;;;;19.45;18.35;;;;;;;;;;4980865;28;20022;-94
2024/04/04 13:32:03;;;;;;;19.35;18.25;;;;;;;;;;4982559;28;20038;-95
2024/04/04 13:34:29;;;;;;;21.02;19.83;;;;;;;;;;4981350;28;20053;-94
2024/04/04 13:36:56;;;;;;;18.63;17.63;;;;;;;;;;4980702;28;20027;-95
2024/04/04 13:39:28;;;;;;;21.27;20.10;;;;;;;;;;4981612;28;20459;-94
2024/04/04 13:41:54;;;;;;;22.17;20.98;;;;;;;;;;4980502;28;20029;-96
2024/04/04 13:44:21;;;;;;;17.02;16.10;;;;;;;;;;4980652;28;20030;-94
2024/04/04 13:46:48;;;;;;;19.95;18.85;;;;;;;;;;4980652;28;20022;-92
2024/04/04 13:49:14;;;;;;;20.65;19.55;;;;;;;;;;4982477;28;20026;-92
2024/04/04 13:51:45;;;;;;;21.55;20.42;;;;;;;;;;4981889;28;20042;-94
2024/04/04 13:54:11;;;;;;;23.35;22.10;;;;;;;;;;4980998;28;20022;-95
2024/04/04 13:56:38;;;;;;;19.60;18.52;;;;;;;;;;4982254;28;20030;-95
2024/04/04 13:59:04;;;;;;;21.65;20.45;;;;;;;;;;4982149;28;20558;-96
2024/04/04 14:01:33;;;;;;;20.35;19.15;;;;;;;;;;4974123;28;20031;-96
2024/04/04 14:03:59;;;;;;;24.90;23.50;;;;;;;;;;4982261;28;20047;-96
2024/04/04 14:06:31;;;;;;;21.35;20.15;;;;;;;;;;4964097;28;20027;-96
2024/04/04 14:09:00;;;;;;;22.80;21.50;;;;;;;;;;4971728;28;20041;-96
2024/04/04 14:11:26;;;;;;;19.90;18.70;;;;;;;;;;4962502;28;20042;-96
2024/04/04 14:13:53;;;;;;;20.23;19.10;;;;;;;;;;4984384;28;20049;-96
2024/04/04 14:16:22;;;;;;;22.95;21.70;;;;;;;;;;4980275;28;20058;-96
2024/04/04 14:18:49;;;;;;;20.83;19.63;;;;;;;;;;4976676;28;20030;-96
2024/04/04 14:21:16;;;;;;;22.85;21.55;;;;;;;;;;4980375;28;20037;-94
2024/04/04 14:23:42;;;;;;;21.88;20.67;;;;;;;;;;4982478;28;20041;-96
2024/04/04 14:26:08;;;;;;;19.60;18.40;;;;;;;;;;5000178;28;20022;-96
2024/04/04 14:28:34;;;;;;;22.60;21.23;;;;;;;;;;4983609;28;20019;-95
2024/04/04 14:31:00;;;;;;;26.15;24.55;;;;;;;;;;4981376;28;20070;-95
2024/04/04 14:33:27;;;;;;;23.42;22.08;;;;;;;;;;4969744;28;20119;-96
2024/04/04 14:35:53;;;;;;;18.55;17.42;;;;;;;;;;4960975;28;20465;-96
2024/04/04 14:38:19;;;;;;;21.00;19.60;;;;;;;;;;4960568;28;20388;-95
2024/04/04 14:40:46;;;;;;;18.83;17.67;;;;;;;;;;4959703;28;20480;-95
2024/04/04 14:43:12;;;;;;;20.05;18.92;;;;;;;;;;4961275;28;20050;-95
2024/04/04 14:45:38;;;;;;;19.92;18.70;;;;;;;;;;4960868;28;20390;-95
2024/04/04 14:48:05;;;;;;;23.67;22.08;;;;;;;;;;4962819;28;20392;-96
2024/04/04 14:50:31;;;;;;;19.95;18.80;;;;;;;;;;4988579;28;20022;-96
2024/04/04 14:52:57;;;;;;;20.33;19.17;;;;;;;;;;4978929;28;20034;-96
2024/04/04 14:55:26;;;;;;;18.48;17.40;;;;;;;;;;4963864;28;20035;-96
2024/04/04 14:57:53;;;;;;;25.23;23.63;;;;;;;;;;4963380;28;20034;-95
2024/04/04 15:00:19;;;;;;;22.13;20.75;;;;;;;;;;4968754;28;20087;-96
2024/04/04 15:02:48;;;;;;;18.10;16.95;;;;;;;;;;4950269;28;20038;-96
2024/04/04 15:07:50;;;;;;;19.05;17.95;;;;;;;;;;5156116;23;20053;-96
2024/04/04 15:10:24;;;;;;;18.58;17.48;;;;;;;;;;5001406;28;20091;-95
2024/04/04 15:12:51;;;;;;;24.00;22.60;;;;;;;;;;5005735;28;20391;-96
2024/04/04 15:15:17;;;;;;;20.52;19.35;;;;;;;;;;5002718;28;20025;-96
2024/04/04 15:17:46;;;;;;;20.58;19.45;;;;;;;;;;5004455;28;20030;-95
2024/04/04 15:20:12;;;;;;;22.30;20.88;;;;;;;;;;4990692;28;20077;-95
2024/04/04 15:22:39;;;;;;;23.27;21.95;;;;;;;;;;4981519;28;20080;-95
2024/04/04 15:25:09;;;;;;;25.83;24.33;;;;;;;;;;4982278;28;20019;-96
2024/04/04 15:27:55;;;;;;;27.38;25.70;;;;;;;;;;4982526;28;20026;-95
2024/04/04 15:30:34;;;;;;;26.30;24.83;;;;;;;;;;4979321;28;20022;-95